Time;durP1;ratioP1;P1;durP2;ratioP2;P2;SDS_P1;SDS_P2;PMS_P1;PMS_P2;Temp;Humidity;BMP_temperature;BMP_pressure;BME280_temperature;BME280_humidity;BME280_pressure;Samples;Min_cycle;Max_cycle;Signal;HPM_P1;HPM_P2
2021/03/15 00:01:50;;;;;;;12.95;10.20;;;204.80;2252.80;;;;;;4971132;28;20361;-71
2021/03/15 00:04:16;;;;;;;15.63;9.40;;;204.80;2252.80;;;;;;4972493;28;20046;-76
2021/03/15 00:06:43;;;;;;;12.48;9.80;;;204.80;2252.80;;;;;;4973766;28;20023;-73
2021/03/15 00:09:09;;;;;;;13.40;9.48;;;204.80;2252.80;;;;;;4974981;28;20039;-73
2021/03/15 00:11:34;;;;;;;12.98;9.88;;;204.80;2252.80;;;;;;4970138;28;20019;-72
2021/03/15 00:14:00;;;;;;;12.68;9.77;;;204.80;2252.80;;;;;;4971424;28;20382;-73
2021/03/15 00:16:26;;;;;;;12.35;10.15;;;180.10;2252.80;;;;;;4974146;28;20481;-75
2021/03/15 00:18:52;;;;;;;13.98;10.35;;;180.10;2252.80;;;;;;4966495;28;20031;-73
2021/03/15 00:21:18;;;;;;;14.10;10.60;;;180.00;2252.80;;;;;;4971457;28;20033;-76
2021/03/15 00:23:44;;;;;;;15.60;10.15;;;180.00;2252.80;;;;;;4956182;28;20045;-76
2021/03/15 00:26:09;;;;;;;14.18;9.98;;;180.10;2252.80;;;;;;4968934;28;20395;-75
2021/03/15 00:28:35;;;;;;;13.02;10.15;;;180.00;2252.80;;;;;;4971538;28;20035;-74
2021/03/15 00:31:01;;;;;;;14.48;10.07;;;179.90;2252.80;;;;;;4969293;28;20027;-74
2021/03/15 00:33:27;;;;;;;13.80;9.93;;;180.00;2252.80;;;;;;4973513;28;20500;-72
2021/03/15 00:35:53;;;;;;;13.23;8.63;;;179.90;2252.80;;;;;;4971073;28;20038;-75
2021/03/15 00:38:18;;;;;;;11.68;8.75;;;179.90;2252.80;;;;;;4966203;28;20031;-71
2021/03/15 00:40:45;;;;;;;11.35;8.57;;;;;;;;;;4961163;28;20082;-72
2021/03/15 00:43:11;;;;;;;11.70;9.00;;;;;;;;;;4972926;28;20215;-72
2021/03/15 00:45:36;;;;;;;11.15;9.05;;;180.00;2252.80;;;;;;4973836;28;20113;-75
2021/03/15 00:48:03;;;;;;;12.93;8.80;;;179.80;2252.80;;;;;;4973079;28;20126;-72
2021/03/15 00:50:40;;;;;;;12.57;9.18;;;179.80;2252.80;;;;;;4961548;28;20054;-73
2021/03/15 00:53:06;;;;;;;11.68;9.02;;;179.80;2252.80;;;;;;4977523;28;20508;-71
2021/03/15 00:55:32;;;;;;;13.27;9.68;;;179.90;2252.80;;;;;;4973071;28;20042;-71
2021/03/15 00:57:58;;;;;;;12.48;10.05;;;179.70;2252.80;;;;;;4965193;28;20038;-72
2021/03/15 01:00:27;;;;;;;15.52;10.25;;;179.70;2252.80;;;;;;4968703;28;20027;-72
2021/03/15 01:02:53;;;;;;;14.68;10.05;;;179.70;2252.80;;;;;;4966942;28;20104;-74
2021/03/15 01:05:42;;;;;;;14.32;10.70;;;179.70;2252.80;;;;;;4973559;28;20034;-73
2021/03/15 01:08:09;;;;;;;12.50;10.02;;;179.70;2252.80;;;;;;4960484;28;20019;-75
2021/03/15 01:10:36;;;;;;;14.88;11.02;;;179.60;2252.80;;;;;;4973615;28;20515;-73
2021/03/15 01:13:04;;;;;;;15.13;11.02;;;179.60;2252.80;;;;;;4972675;28;20026;-72
2021/03/15 01:15:31;;;;;;;16.48;11.40;;;179.70;2252.80;;;;;;4968629;28;20027;-72
2021/03/15 01:17:57;;;;;;;15.30;10.90;;;179.60;2252.80;;;;;;4976001;28;20385;-71
2021/03/15 01:20:24;;;;;;;17.25;11.80;;;179.60;2252.80;;;;;;4977818;28;20031;-74
2021/03/15 01:22:51;;;;;;;15.18;11.18;;;179.60;2252.80;;;;;;4965352;28;20109;-74
2021/03/15 01:25:20;;;;;;;17.90;12.27;;;179.60;2252.80;;;;;;4966900;28;20035;-74
2021/03/15 01:27:46;;;;;;;13.57;11.13;;;179.60;2252.80;;;;;;4972445;28;20015;-72
2021/03/15 01:30:15;;;;;;;16.77;10.80;;;179.50;2252.80;;;;;;4973191;28;20033;-73
2021/03/15 01:32:40;;;;;;;16.58;10.90;;;179.50;2252.80;;;;;;4971364;28;20031;-74
2021/03/15 01:35:07;;;;;;;13.93;11.13;;;179.50;2252.80;;;;;;4967196;28;20038;-72
2021/03/15 01:37:34;;;;;;;16.55;11.48;;;;;;;;;;4970717;28;20019;-73
2021/03/15 01:40:00;;;;;;;16.13;11.20;;;;;;;;;;4965512;28;20561;-73
2021/03/15 01:42:26;;;;;;;16.70;10.52;;;;;;;;;;4972660;28;20093;-70
2021/03/15 01:44:52;;;;;;;18.92;11.10;;;;;;;;;;4972374;28;20105;-71
2021/03/15 01:47:18;;;;;;;15.65;10.75;;;;;;;;;;4971917;28;20055;-71
2021/03/15 01:49:44;;;;;;;16.10;11.13;;;;;;;;;;4969705;28;20122;-70
2021/03/15 01:52:11;;;;;;;17.88;11.00;;;;;;;;;;4972471;28;20062;-72
2021/03/15 01:54:37;;;;;;;17.95;11.95;;;;;;;;;;4968974;28;20031;-72
2021/03/15 01:57:03;;;;;;;21.05;13.23;;;;;;;;;;4968680;28;20042;-73
2021/03/15 01:59:29;;;;;;;17.00;12.15;;;179.70;2252.80;;;;;;4960602;28;20030;-72
2021/03/15 02:01:56;;;;;;;18.60;12.90;;;179.40;2252.80;;;;;;4972510;28;20027;-72
2021/03/15 02:04:26;;;;;;;18.75;13.32;;;;;;;;;;4972231;28;20474;-72
2021/03/15 02:06:52;;;;;;;17.25;12.90;;;;;;;;;;4972312;28;20106;-71
2021/03/15 02:09:19;;;;;;;18.25;13.40;;;179.60;2252.80;;;;;;4966230;28;20030;-72
2021/03/15 02:12:04;;;;;;;19.20;13.00;;;;;;;;;;4972530;28;20026;-71
2021/03/15 02:14:48;;;;;;;19.35;13.88;;;179.30;2252.80;;;;;;4973036;28;20369;-71
2021/03/15 02:17:28;;;;;;;17.90;13.35;;;154.50;2252.80;;;;;;4967934;28;20042;-71
2021/03/15 02:20:19;;;;;;;19.63;13.40;;;154.50;2252.80;;;;;;4972408;28;20035;-72
2021/03/15 02:23:05;;;;;;;18.55;13.85;;;154.50;2252.80;;;;;;4963957;28;20046;-71
2021/03/15 02:25:46;;;;;;;19.83;13.18;;;154.40;2252.80;;;;;;4961742;28;20497;-72
2021/03/15 02:28:52;;;;;;;18.02;12.95;;;154.40;2252.80;;;;;;4972461;28;20430;-71
2021/03/15 02:31:38;;;;;;;23.20;14.05;;;154.30;2252.80;;;;;;4969481;28;20059;-72
2021/03/15 02:34:41;;;;;;;21.33;12.75;;;154.30;2252.80;;;;;;4959970;28;20082;-71
2021/03/15 02:37:10;;;;;;;18.60;12.43;;;154.30;2252.80;;;;;;4966901;28;20031;-72
2021/03/15 02:39:40;;;;;;;16.48;12.60;;;154.30;2252.80;;;;;;4964369;28;20385;-72
2021/03/15 02:42:17;;;;;;;18.77;12.93;;;154.20;2252.80;;;;;;4971993;28;20094;-72
2021/03/15 02:44:49;;;;;;;20.27;13.00;;;154.20;2252.80;;;;;;4964217;28;20042;-73
2021/03/15 02:47:22;;;;;;;16.95;12.38;;;154.20;2252.80;;;;;;4970978;28;20030;-71
2021/03/15 02:49:50;;;;;;;21.23;12.77;;;154.10;2252.80;;;;;;4969789;28;20088;-70
2021/03/15 02:52:20;;;;;;;19.98;13.60;;;;;;;;;;4970668;28;20051;-71
2021/03/15 02:54:48;;;;;;;21.38;13.02;;;154.00;2252.80;;;;;;4967291;28;20054;-71
2021/03/15 02:57:19;;;;;;;20.10;12.60;;;153.80;2252.80;;;;;;4970652;28;20027;-71
2021/03/15 02:59:47;;;;;;;20.33;13.77;;;153.70;2252.80;;;;;;4972124;28;20054;-71
2021/03/15 03:02:15;;;;;;;19.33;12.50;;;153.70;2252.80;;;;;;4961021;28;20038;-71
2021/03/15 03:04:45;;;;;;;18.00;11.90;;;153.70;2252.80;;;;;;4962152;28;20043;-71
2021/03/15 03:07:12;;;;;;;15.95;11.52;;;153.70;2252.80;;;;;;4969949;28;20050;-71
2021/03/15 03:09:38;;;;;;;20.35;12.50;;;153.60;2252.80;;;;;;4977687;28;20026;-71
2021/03/15 03:12:06;;;;;;;21.98;13.45;;;128.90;2252.80;;;;;;4974379;28;20105;-71
2021/03/15 03:14:34;;;;;;;20.52;13.20;;;153.60;2252.80;;;;;;4975727;28;20038;-73
2021/03/15 03:17:03;;;;;;;23.55;12.75;;;128.80;2252.80;;;;;;4971746;28;20030;-72
2021/03/15 03:19:30;;;;;;;18.63;12.65;;;128.90;2252.80;;;;;;4974804;28;20022;-72
2021/03/15 03:21:58;;;;;;;19.75;12.98;;;128.90;2252.80;;;;;;4971151;28;20019;-72
2021/03/15 03:24:25;;;;;;;20.23;12.30;;;128.80;2252.80;;;;;;4965964;28;20092;-72
2021/03/15 03:26:53;;;;;;;19.75;12.18;;;128.90;2252.80;;;;;;4963195;28;20440;-71
2021/03/15 03:29:20;;;;;;;20.33;12.65;;;128.90;2252.80;;;;;;4967637;28;20054;-72
2021/03/15 03:31:48;;;;;;;21.70;12.60;;;128.90;2252.80;;;;;;4973435;28;20019;-72
2021/03/15 03:34:14;;;;;;;18.73;11.57;;;128.90;2252.80;;;;;;4971789;28;20578;-71
2021/03/15 03:36:40;;;;;;;18.60;11.32;;;128.80;2252.80;;;;;;4975200;28;20488;-70
2021/03/15 03:39:08;;;;;;;17.38;11.98;;;128.90;2252.80;;;;;;4974625;28;20034;-71
2021/03/15 03:41:35;;;;;;;15.85;10.75;;;128.90;2252.80;;;;;;4966431;28;20030;-71
2021/03/15 03:44:02;;;;;;;15.43;10.20;;;128.90;2252.80;;;;;;4972405;28;20035;-72
2021/03/15 03:46:28;;;;;;;16.27;11.23;;;128.80;2252.80;;;;;;4975195;28;20038;-71
2021/03/15 03:48:54;;;;;;;15.05;10.75;;;128.90;2252.80;;;;;;4973487;28;20446;-70
2021/03/15 03:51:24;;;;;;;14.40;10.80;;;128.90;2252.80;;;;;;4967169;28;20031;-71
2021/03/15 03:53:59;;;;;;;17.38;10.75;;;153.60;2252.80;;;;;;4967805;28;20073;-71
2021/03/15 03:56:32;;;;;;;16.55;11.02;;;128.80;2252.80;;;;;;4970169;28;20072;-70
2021/03/15 03:58:59;;;;;;;14.73;10.15;;;128.80;2252.80;;;;;;4974957;28;20097;-71
2021/03/15 04:01:38;;;;;;;16.77;9.57;;;128.80;2252.80;;;;;;4973619;28;20029;-70
2021/03/15 04:04:06;;;;;;;14.13;9.57;;;128.80;2252.80;;;;;;4973816;28;20137;-71
2021/03/15 04:06:35;;;;;;;15.02;10.02;;;128.80;2252.80;;;;;;4966856;28;20037;-71
2021/03/15 04:09:02;;;;;;;13.93;10.02;;;128.70;2252.80;;;;;;4974304;28;20021;-70
2021/03/15 04:11:31;;;;;;;15.50;10.50;;;128.70;2252.80;;;;;;4965306;28;20069;-71
2021/03/15 04:13:58;;;;;;;16.80;10.90;;;128.60;2252.80;;;;;;4968643;28;20027;-72
2021/03/15 04:16:32;;;;;;;19.52;13.73;;;128.70;2252.80;;;;;;4974098;28;20026;-71
2021/03/15 04:19:02;;;;;;;13.75;9.85;;;128.70;2252.80;;;;;;4957831;28;20019;-71
2021/03/15 04:21:30;;;;;;;19.02;12.07;;;128.60;2252.80;;;;;;4973716;28;20035;-71
2021/03/15 04:23:58;;;;;;;13.88;9.95;;;128.60;2252.80;;;;;;4967973;28;20114;-71
2021/03/15 04:26:26;;;;;;;12.80;9.00;;;128.60;2252.80;;;;;;4962860;28;20393;-73
2021/03/15 04:28:54;;;;;;;14.35;9.20;;;128.60;2252.80;;;;;;4982068;28;20023;-72
2021/03/15 04:31:22;;;;;;;15.38;9.80;;;128.60;2252.80;;;;;;4972965;28;20097;-72
2021/03/15 04:33:49;;;;;;;15.32;9.82;;;128.60;2252.80;;;;;;4969954;28;20086;-72
2021/03/15 04:36:17;;;;;;;14.90;8.77;;;128.50;2252.80;;;;;;4970661;28;20421;-70
2021/03/15 04:38:44;;;;;;;14.73;10.60;;;128.50;2252.80;;;;;;4970816;28;20158;-72
2021/03/15 04:41:10;;;;;;;16.80;10.45;;;128.50;2252.80;;;;;;4964193;28;20085;-71
2021/03/15 04:43:38;;;;;;;15.88;9.95;;;128.50;2252.80;;;;;;4971864;28;20037;-74
2021/03/15 04:46:05;;;;;;;14.43;9.82;;;128.50;2252.80;;;;;;4973899;28;20038;-75
2021/03/15 04:48:32;;;;;;;14.52;10.02;;;128.60;2252.80;;;;;;4977652;28;20097;-72
2021/03/15 04:51:04;;;;;;;15.93;10.82;;;128.50;2252.80;;;;;;4973560;28;20034;-72
2021/03/15 04:53:33;;;;;;;14.45;10.43;;;128.40;2252.80;;;;;;4970009;28;20078;-72
2021/03/15 04:56:07;;;;;;;15.32;11.45;;;128.30;2252.80;;;;;;4973132;28;20476;-72
2021/03/15 04:58:33;;;;;;;;;;;128.30;2252.80;;;;;;4974112;28;20033;-72
2021/03/15 05:01:01;;;;;;;14.55;11.32;;;128.20;2252.80;;;;;;4972489;28;19917;-70
2021/03/15 05:03:28;;;;;;;19.95;11.88;;;128.20;2252.80;;;;;;4971846;28;20405;-81
2021/03/15 05:05:55;;;;;;;15.32;11.18;;;128.20;2252.80;;;;;;4971401;28;20508;-71
2021/03/15 05:08:26;;;;;;;17.25;11.45;;;128.20;2252.80;;;;;;4973026;28;20027;-81
2021/03/15 05:10:53;;;;;;;20.88;12.00;;;128.30;2252.80;;;;;;4972845;28;20026;-78
2021/03/15 05:13:20;;;;;;;17.00;11.77;;;128.30;2252.80;;;;;;4974793;28;20031;-71
2021/03/15 05:15:47;;;;;;;16.52;11.20;;;128.20;2252.80;;;;;;4971039;28;20063;-74
2021/03/15 05:18:14;;;;;;;17.75;12.35;;;128.20;2252.80;;;;;;4972879;28;20350;-72
2021/03/15 05:20:45;;;;;;;21.15;12.10;;;128.20;2252.80;;;;;;4972009;28;20031;-74
2021/03/15 05:23:13;;;;;;;16.38;12.98;;;128.20;2252.80;;;;;;4971936;28;20038;-71
2021/03/15 05:25:42;;;;;;;17.65;12.77;;;128.20;2252.80;;;;;;4973176;28;20493;-70
2021/03/15 05:28:10;;;;;;;18.58;13.48;;;128.20;2252.80;;;;;;4970190;28;20032;-71
2021/03/15 05:30:36;;;;;;;20.33;13.15;;;128.20;2252.80;;;;;;4972960;28;20139;-77
2021/03/15 05:35:52;;;;;;;18.55;15.68;;;128.10;2252.80;;;;;;5390165;23;20047;-74
2021/03/15 05:38:18;;;;;;;23.80;16.35;;;128.10;2252.80;;;;;;4965132;28;20514;-70
2021/03/15 05:40:47;;;;;;;20.70;14.98;;;128.10;2252.80;;;;;;4948540;28;20031;-71
2021/03/15 05:43:48;;;;;;;21.38;15.57;;;128.10;2252.80;;;;;;4945177;28;20039;-72
2021/03/15 05:46:51;;;;;;;19.45;14.80;;;153.70;2252.80;;;;;;4954938;28;20041;-75
2021/03/15 05:49:33;;;;;;;21.83;15.43;;;128.10;2252.80;;;;;;4949476;28;20063;-75
2021/03/15 05:52:20;;;;;;;20.88;15.55;;;128.10;2252.80;;;;;;4937678;28;20023;-75
2021/03/15 05:55:18;;;;;;;21.75;16.23;;;128.10;2252.80;;;;;;4961339;28;20082;-76
2021/03/15 05:57:57;;;;;;;23.60;15.63;;;128.20;2252.80;;;;;;4941632;28;20457;-74
2021/03/15 06:00:39;;;;;;;22.45;15.88;;;128.20;2252.80;;;;;;4958103;28;20050;-88
2021/03/15 06:03:42;;;;;;;27.85;17.33;;;128.20;2252.80;;;;;;4959904;28;20034;-76
2021/03/15 06:06:13;;;;;;;21.98;16.02;;;128.30;2252.80;;;;;;4951896;28;20040;-81
2021/03/15 06:08:45;;;;;;;22.38;15.85;;;128.30;2252.80;;;;;;4956676;28;20058;-80
2021/03/15 06:11:16;;;;;;;20.58;15.30;;;128.40;2252.80;;;;;;4968702;28;20595;-77
2021/03/15 06:13:42;;;;;;;18.67;15.30;;;128.40;2252.80;;;;;;4954542;28;20470;-76
2021/03/15 06:16:10;;;;;;;21.92;16.20;;;103.20;2227.20;;;;;;4954125;28;20043;-77
2021/03/15 06:18:36;;;;;;;21.50;13.98;;;128.50;2252.80;;;;;;4953424;28;20379;-76
2021/03/15 06:21:02;;;;;;;16.33;13.15;;;128.50;2252.80;;;;;;4953189;28;20039;-76
2021/03/15 06:23:29;;;;;;;14.25;10.88;;;128.40;2252.80;;;;;;4957580;28;20020;-74
2021/03/15 06:25:55;;;;;;;14.52;11.32;;;128.30;2252.80;;;;;;4953726;28;20034;-74
2021/03/15 06:28:22;;;;;;;17.25;12.75;;;128.10;2252.80;;;;;;4948244;28;20020;-74
2021/03/15 06:30:51;;;;;;;12.93;10.13;;;128.10;2252.80;;;;;;4953425;28;20031;-77
2021/03/15 06:33:18;;;;;;;18.65;13.55;;;103.30;2227.20;;;;;;4953650;28;20031;-74
2021/03/15 06:35:53;;;;;;;18.08;12.02;;;103.20;2227.20;;;;;;4964373;28;20134;-79
2021/03/15 06:38:20;;;;;;;15.18;12.55;;;102.90;2227.20;;;;;;4972532;28;20026;-74
2021/03/15 06:40:46;;;;;;;15.93;11.70;;;102.90;2227.20;;;;;;4971990;28;20089;-69
2021/03/15 06:43:14;;;;;;;14.32;11.35;;;102.70;2227.20;;;;;;4975744;28;20078;-67
2021/03/15 06:45:45;;;;;;;16.17;12.48;;;102.60;2227.20;;;;;;4976399;28;20039;-70
2021/03/15 06:48:11;;;;;;;20.83;13.45;;;102.60;2227.20;;;;;;4975923;28;20054;-68
2021/03/15 06:50:37;;;;;;;14.85;12.40;;;102.60;2227.20;;;;;;4957398;28;20031;-69
2021/03/15 06:53:03;;;;;;;15.40;11.40;;;102.40;2227.20;;;;;;4977322;28;20019;-72
2021/03/15 06:55:43;;;;;;;12.43;10.50;;;102.40;2227.20;;;;;;4976774;28;20023;-74
2021/03/15 06:58:18;;;;;;;16.80;11.82;;;77.70;2227.20;;;;;;4973258;28;20035;-74
2021/03/15 07:00:45;;;;;;;16.52;11.90;;;77.50;2227.20;;;;;;4974896;28;20027;-74
2021/03/15 07:03:20;;;;;;;12.95;10.80;;;;;;;;;;4976186;28;20476;-72
2021/03/15 07:05:55;;;;;;;14.95;11.25;;;77.70;2227.20;;;;;;4975655;28;20062;-73
2021/03/15 07:08:23;;;;;;;16.50;11.77;;;77.60;2227.20;;;;;;4977767;28;20089;-78
2021/03/15 07:10:49;;;;;;;13.70;11.15;;;77.50;2227.20;;;;;;4979834;28;20035;-71
2021/03/15 07:13:20;;;;;;;16.77;12.55;;;77.60;2227.20;;;;;;4979745;28;20181;-81
2021/03/15 07:15:51;;;;;;;14.13;10.68;;;77.50;2227.20;;;;;;4972916;28;20039;-78
2021/03/15 07:18:20;;;;;;;16.42;12.68;;;77.40;2227.20;;;;;;4980858;28;20022;-75
2021/03/15 07:20:58;;;;;;;16.02;12.77;;;77.50;2227.20;;;;;;4973943;28;20037;-83
2021/03/15 07:23:41;;;;;;;17.27;13.85;;;77.40;2227.20;;;;;;4976197;28;20484;-75
2021/03/15 07:26:22;;;;;;;15.43;12.18;;;77.30;2227.20;;;;;;4973336;28;20508;-74
2021/03/15 07:28:48;;;;;;;19.15;13.88;;;77.50;2227.20;;;;;;4975649;28;20031;-74
2021/03/15 07:31:21;;;;;;;17.60;13.85;;;77.50;2227.20;;;;;;4973725;28;20489;-74
2021/03/15 07:33:50;;;;;;;18.77;13.77;;;77.50;2227.20;;;;;;4975410;28;20547;-69
2021/03/15 07:36:15;;;;;;;20.65;15.25;;;77.70;2227.20;;;;;;4974806;28;20047;-70
2021/03/15 07:38:41;;;;;;;22.02;14.60;;;77.60;2227.20;;;;;;4978500;28;20030;-69
2021/03/15 07:41:17;;;;;;;22.77;16.73;;;77.70;2227.20;;;;;;4979062;28;20041;-70
2021/03/15 07:43:43;;;;;;;19.70;14.85;;;102.40;2227.20;;;;;;4977614;28;20036;-70
2021/03/15 07:46:29;;;;;;;22.80;16.77;;;102.40;2227.20;;;;;;4972922;28;20046;-73
2021/03/15 07:48:59;;;;;;;24.08;16.52;;;77.70;2227.20;;;;;;4975408;28;20098;-70
2021/03/15 07:51:29;;;;;;;25.98;17.95;;;77.60;2227.20;;;;;;4977745;28;20041;-81
2021/03/15 07:54:05;;;;;;;24.10;19.15;;;77.50;2227.20;;;;;;4976817;28;20054;-74
2021/03/15 07:56:31;;;;;;;23.58;18.30;;;77.60;2227.20;;;;;;4964885;28;20046;-70
2021/03/15 07:58:57;;;;;;;24.83;17.65;;;77.70;2227.20;;;;;;4964343;28;20042;-72
2021/03/15 08:01:24;;;;;;;23.60;17.70;;;77.60;2227.20;;;;;;4984168;28;20102;-72
2021/03/15 08:03:51;;;;;;;24.25;18.58;;;77.70;2227.20;;;;;;4974222;28;20477;-70
2021/03/15 08:06:17;;;;;;;24.63;16.30;;;77.60;2227.20;;;;;;4968787;28;20031;-71
2021/03/15 08:08:44;;;;;;;22.08;15.48;;;77.70;2227.20;;;;;;4974113;28;20074;-73
2021/03/15 08:11:15;;;;;;;21.65;16.60;;;77.70;2227.20;;;;;;4974295;28;20030;-69
2021/03/15 08:13:44;;;;;;;23.80;17.35;;;77.70;2227.20;;;;;;4974460;28;20062;-72
2021/03/15 08:16:13;;;;;;;24.25;17.88;;;77.70;2227.20;;;;;;4974359;28;20030;-71
2021/03/15 08:18:42;;;;;;;26.02;17.80;;;102.40;2227.20;;;;;;4976054;28;20027;-74
2021/03/15 08:21:17;;;;;;;19.77;16.05;;;102.40;2227.20;;;;;;4973730;28;20047;-72
2021/03/15 08:23:46;;;;;;;21.13;16.38;;;102.40;2227.20;;;;;;4972862;28;20062;-72
2021/03/15 08:26:23;;;;;;;23.00;17.50;;;102.50;2227.20;;;;;;4976332;28;20035;-82
2021/03/15 08:28:52;;;;;;;17.70;13.73;;;102.60;2227.20;;;;;;4965658;28;20027;-84
2021/03/15 08:31:34;;;;;;;16.10;12.60;;;102.50;2227.20;;;;;;4960545;28;20027;-83
2021/03/15 08:34:01;;;;;;;20.25;14.38;;;102.40;2227.20;;;;;;4971028;28;20023;-78
2021/03/15 08:36:43;;;;;;;20.10;15.80;;;102.50;2227.20;;;;;;4969751;28;20039;-75
2021/03/15 08:39:28;;;;;;;19.65;15.52;;;102.50;2227.20;;;;;;4953171;28;20023;-85
2021/03/15 08:42:08;;;;;;;15.38;11.10;;;102.60;2227.20;;;;;;4969257;28;20473;-83
2021/03/15 08:44:49;;;;;;;19.67;12.57;;;102.50;2227.20;;;;;;4970294;28;20043;-86
2021/03/15 08:47:52;;;;;;;15.68;12.43;;;102.50;2227.20;;;;;;4966185;28;20019;-78
2021/03/15 08:50:34;;;;;;;17.88;13.38;;;102.60;2227.20;;;;;;4967787;28;20480;-71
2021/03/15 08:53:00;;;;;;;17.42;13.52;;;102.60;2227.20;;;;;;4971853;28;20046;-67
2021/03/15 08:55:55;;;;;;;18.27;14.48;;;102.50;2227.20;;;;;;4971352;28;20027;-71
2021/03/15 08:58:40;;;;;;;21.13;15.32;;;102.70;2227.20;;;;;;4875505;29;20082;-68
2021/03/15 09:01:08;;;;;;;20.00;15.95;;;102.70;2227.20;;;;;;4875237;29;20075;-68
2021/03/15 09:03:54;;;;;;;18.13;14.95;;;102.80;2227.20;;;;;;4875626;29;20033;-69
2021/03/15 09:06:38;;;;;;;21.30;16.30;;;102.90;2227.20;;;;;;4875273;29;20403;-68
2021/03/15 09:09:11;;;;;;;19.88;15.50;;;102.90;2227.20;;;;;;4874252;29;20487;-69
2021/03/15 09:11:37;;;;;;;21.23;16.52;;;102.90;2227.20;;;;;;4874771;29;20040;-72
2021/03/15 09:14:22;;;;;;;22.08;15.93;;;102.90;2227.20;;;;;;4874076;29;20419;-70
2021/03/15 09:16:54;;;;;;;21.95;17.05;;;102.90;2227.20;;;;;;4873288;29;20107;-70
2021/03/15 09:19:20;;;;;;;21.25;15.80;;;103.00;2227.20;;;;;;4876270;29;20029;-89
2021/03/15 09:21:51;;;;;;;20.98;16.13;;;102.90;2227.20;;;;;;4874267;29;20041;-74
2021/03/15 09:24:39;;;;;;;21.58;15.50;;;103.00;2227.20;;;;;;4875777;29;20160;-73
2021/03/15 09:27:05;;;;;;;19.58;14.32;;;102.90;2227.20;;;;;;4873181;29;20124;-85
2021/03/15 09:29:34;;;;;;;20.70;14.30;;;103.00;2227.20;;;;;;4876030;29;20172;-73
2021/03/15 09:32:06;;;;;;;19.60;15.02;;;103.10;2227.20;;;;;;4878812;29;20085;-72
2021/03/15 09:34:33;;;;;;;20.55;14.23;;;103.00;2227.20;;;;;;4910133;28;20043;-73
2021/03/15 09:37:00;;;;;;;23.63;15.77;;;103.10;2227.20;;;;;;4963173;28;20525;-72
2021/03/15 09:39:29;;;;;;;24.90;17.25;;;103.10;2227.20;;;;;;4973466;28;20106;-72
2021/03/15 09:41:56;;;;;;;21.83;16.60;;;103.20;2227.20;;;;;;4972649;28;20058;-74
2021/03/15 09:44:25;;;;;;;21.27;16.48;;;103.30;2227.20;;;;;;4972977;28;20058;-71
2021/03/15 09:46:52;;;;;;;20.90;14.80;;;128.10;2252.80;;;;;;4975573;28;20022;-71
2021/03/15 09:49:38;;;;;;;20.77;14.13;;;128.10;2252.80;;;;;;4974772;28;20089;-72
2021/03/15 09:52:21;;;;;;;21.65;16.35;;;128.10;2252.80;;;;;;4971622;28;20088;-82
2021/03/15 09:54:54;;;;;;;21.45;16.42;;;128.20;2252.80;;;;;;4966015;28;20089;-76
2021/03/15 09:57:21;;;;;;;16.57;14.67;;;128.30;2252.80;;;;;;4972256;28;20487;-83
2021/03/15 09:59:48;;;;;;;23.05;15.20;;;128.30;2252.80;;;;;;4972800;28;20035;-78
2021/03/15 10:02:25;;;;;;;20.63;16.88;;;128.40;2252.80;;;;;;4973968;28;20105;-82
2021/03/15 10:04:51;;;;;;;22.48;17.08;;;128.50;2252.80;;;;;;4967360;28;20042;-79
2021/03/15 10:07:17;;;;;;;19.10;15.52;;;128.60;2252.80;;;;;;4971390;28;20628;-78
2021/03/15 10:09:45;;;;;;;18.10;15.30;;;128.70;2252.80;;;;;;4969736;28;20097;-81
2021/03/15 10:12:17;;;;;;;19.05;15.70;;;128.60;2252.80;;;;;;4958582;28;20031;-81
2021/03/15 10:14:42;;;;;;;20.70;16.63;;;128.70;2252.80;;;;;;4972853;28;20025;-79
2021/03/15 10:17:20;;;;;;;19.15;17.13;;;128.70;2252.80;;;;;;4953870;28;20389;-75
2021/03/15 10:19:45;;;;;;;19.23;15.82;;;128.80;2252.80;;;;;;4960028;28;20027;-84
2021/03/15 10:22:14;;;;;;;21.70;17.77;;;128.80;2252.80;;;;;;4976382;28;20409;-77
2021/03/15 10:24:41;;;;;;;19.70;17.58;;;128.90;2252.80;;;;;;4962130;28;20107;-84
2021/03/15 10:27:27;;;;;;;18.92;15.75;;;128.50;2252.80;;;;;;4969585;28;20023;-89
2021/03/15 10:29:57;;;;;;;20.42;16.33;;;128.90;2252.80;;;;;;4972214;28;20103;-86
2021/03/15 10:32:29;;;;;;;27.65;21.17;;;128.90;2252.80;;;;;;4951321;28;20038;-78
2021/03/15 10:35:06;;;;;;;27.60;20.40;;;128.90;2252.80;;;;;;4970854;28;20477;-72
2021/03/15 10:37:35;;;;;;;23.73;19.60;;;153.60;2252.80;;;;;;4953271;28;20041;-74
2021/03/15 10:40:01;;;;;;;23.33;18.98;;;153.60;2252.80;;;;;;4954571;28;20019;-71
2021/03/15 10:42:28;;;;;;;24.13;19.25;;;153.60;2252.80;;;;;;4958762;28;20508;-73
2021/03/15 10:44:54;;;;;;;23.73;18.95;;;153.60;2252.80;;;;;;4956929;28;20053;-70
2021/03/15 10:47:46;;;;;;;30.00;21.08;;;153.60;2252.80;;;;;;4956369;28;20027;-73
2021/03/15 10:50:33;;;;;;;27.75;20.85;;;128.90;2252.80;;;;;;4948973;28;20046;-73
2021/03/15 10:53:11;;;;;;;30.92;21.38;;;128.90;2252.80;;;;;;4951523;28;20086;-77
2021/03/15 10:55:38;;;;;;;25.10;19.83;;;128.90;2252.80;;;;;;4955739;28;20488;-76
2021/03/15 10:58:14;;;;;;;25.33;21.88;;;128.90;2252.80;;;;;;4955704;28;20028;-80
2021/03/15 11:00:48;;;;;;;28.70;22.13;;;153.60;2252.80;;;;;;4950871;28;20110;-72
2021/03/15 11:03:23;;;;;;;;;;;153.60;2252.80;;;;;;4947473;28;20163;-75
2021/03/15 11:06:10;;;;;;;25.23;19.45;;;153.60;2252.80;;;;;;4952226;28;19923;-74
2021/03/15 11:08:37;;;;;;;24.40;20.38;;;153.60;2252.80;;;;;;4947580;28;20027;-74
2021/03/15 11:11:24;;;;;;;29.58;22.88;;;153.60;2252.80;;;;;;4951512;28;20035;-74
2021/03/15 11:13:55;;;;;;;26.60;20.48;;;153.60;2252.80;;;;;;4947835;28;20023;-77
2021/03/15 11:16:29;;;;;;;24.52;17.75;;;153.60;2252.80;;;;;;4956172;28;20030;-74
2021/03/15 11:19:04;;;;;;;22.48;17.23;;;128.90;2252.80;;;;;;4953158;28;20054;-76
2021/03/15 11:21:34;;;;;;;29.60;19.83;;;128.90;2252.80;;;;;;4947630;28;20107;-77
2021/03/15 11:24:00;;;;;;;26.00;18.02;;;153.60;2252.80;;;;;;4953853;28;20039;-81
2021/03/15 11:26:27;;;;;;;22.85;15.88;;;153.60;2252.80;;;;;;4956328;28;20027;-77
2021/03/15 11:28:57;;;;;;;25.92;19.80;;;128.90;2252.80;;;;;;4936108;29;20497;-71
2021/03/15 11:31:27;;;;;;;28.20;21.55;;;128.90;2252.80;;;;;;4947278;28;20063;-83
2021/03/15 11:33:54;;;;;;;23.25;18.40;;;128.90;2252.80;;;;;;4954979;28;20050;-79
2021/03/15 11:36:21;;;;;;;26.80;20.95;;;128.90;2252.80;;;;;;4958784;28;20542;-72
2021/03/15 11:38:50;;;;;;;25.17;20.45;;;153.60;2252.80;;;;;;4971895;28;20069;-70
2021/03/15 11:41:18;;;;;;;24.63;20.77;;;153.60;2252.80;;;;;;4974085;28;20035;-73
2021/03/15 11:43:44;;;;;;;28.63;21.20;;;153.60;2252.80;;;;;;4970081;28;20045;-73
2021/03/15 11:46:09;;;;;;;28.85;21.50;;;153.70;2252.80;;;;;;4956364;28;20042;-70
2021/03/15 11:48:35;;;;;;;27.00;19.77;;;153.70;2252.80;;;;;;4970679;28;20027;-84
2021/03/15 11:51:01;;;;;;;25.55;20.92;;;153.70;2252.80;;;;;;4975034;28;20030;-67
2021/03/15 11:53:27;;;;;;;26.85;20.98;;;153.70;2252.80;;;;;;4961269;28;20034;-74
2021/03/15 11:55:52;;;;;;;30.50;21.35;;;153.80;2252.80;;;;;;4967342;28;20400;-69
2021/03/15 11:58:18;;;;;;;28.67;21.55;;;153.80;2252.80;;;;;;4961368;28;20035;-70
2021/03/15 12:00:44;;;;;;;31.42;23.27;;;153.90;2252.80;;;;;;4974197;28;20033;-74
2021/03/15 12:06:06;;;;;;;46.35;34.67;;;153.90;2252.80;;;;;;4965947;28;20039;-73
2021/03/15 12:08:32;;;;;;;30.38;22.67;;;154.00;2252.80;;;;;;4975114;28;20027;-83
2021/03/15 12:13:36;;;;;;;48.13;35.80;;;154.00;2252.80;;;;;;5017363;23;20057;-72
2021/03/15 12:16:01;;;;;;;34.92;25.45;;;154.00;2252.80;;;;;;4998749;28;20022;-70
2021/03/15 12:18:27;;;;;;;37.03;25.35;;;154.10;2252.80;;;;;;4993670;28;20044;-73
2021/03/15 12:20:54;;;;;;;30.52;21.40;;;154.10;2252.80;;;;;;5004103;28;20026;-72
2021/03/15 12:23:19;;;;;;;32.17;22.40;;;154.10;2252.80;;;;;;4996259;28;20379;-70
2021/03/15 12:25:45;;;;;;;36.50;25.10;;;154.00;2252.80;;;;;;4995035;28;20034;-76
2021/03/15 12:28:14;;;;;;;39.13;24.92;;;154.10;2252.80;;;;;;4997889;28;20116;-77
2021/03/15 12:30:39;;;;;;;29.35;22.27;;;154.10;2252.80;;;;;;5009742;28;20030;-75
2021/03/15 12:33:05;;;;;;;25.55;20.42;;;154.10;2252.80;;;;;;4999138;28;20037;-78
2021/03/15 12:35:31;;;;;;;27.50;20.75;;;154.10;2252.80;;;;;;4994289;28;20019;-79